Time;durP1;ratioP1;P1;durP2;ratioP2;P2;SDS_P1;SDS_P2;PMS_P1;PMS_P2;Temp;Humidity;BMP_temperature;BMP_pressure;BME280_temperature;BME280_humidity;BME280_pressure;Samples;Min_cycle;Max_cycle;Signal;HPM_P1;HPM_P2
2023/05/02 00:01:40;;;;;;;8.10;4.00;;;;;;;10.14;51.35;99727.10;217372;1260;247153;-68
2023/05/02 00:06:48;;;;;;;6.80;4.40;;;;;;;10.09;51.50;99725.80;217864;1258;139423;-68
2023/05/02 00:11:52;;;;;;;8.90;4.00;;;;;;;10.04;51.75;99720.77;217611;1258;139602;-67
2023/05/02 00:16:57;;;;;;;4.40;3.10;;;;;;;10.03;51.89;99715.36;217809;1260;140747;-66
2023/05/02 00:22:02;;;;;;;4.30;3.60;;;;;;;10.00;52.22;99710.29;218387;1258;140976;-67
2023/05/02 00:27:07;;;;;;;8.30;4.30;;;;;;;9.96;52.33;99706.03;218279;1258;139853;-67
2023/05/02 00:32:12;;;;;;;9.40;4.20;;;;;;;9.96;52.52;99701.50;218624;1257;139370;-66
2023/05/02 00:37:16;;;;;;;4.70;4.00;;;;;;;9.96;52.65;99695.32;219234;1256;140603;-67
2023/05/02 00:42:22;;;;;;;3.80;2.80;;;;;;;9.97;52.87;99691.89;220193;1256;139439;-67
2023/05/02 00:47:27;;;;;;;11.20;3.70;;;;;;;9.96;52.94;99685.35;220189;1256;139154;-66
2023/05/02 00:52:32;;;;;;;6.00;3.20;;;;;;;9.91;52.91;99682.28;220207;1257;138792;-67
2023/05/02 00:57:37;;;;;;;5.80;4.40;;;;;;;9.90;53.17;99676.85;220212;1256;140850;-67
2023/05/02 01:02:57;;;;;;;4.90;4.00;;;;;;;9.88;53.24;99674.42;218909;1257;139342;-70
2023/05/02 01:08:29;;;;;;;4.10;2.90;;;;;;;9.85;53.39;99670.18;219255;1256;140824;-70
2023/05/02 01:13:36;;;;;;;7.70;4.00;;;;;;;9.77;53.72;99668.80;217979;1258;497421;-70
2023/05/02 01:18:43;;;;;;;5.80;3.80;;;;;;;9.66;54.03;99665.14;217656;1257;138564;-68
2023/05/02 01:24:06;;;;;;;;;;;;;;;9.55;54.27;99660.81;217893;1258;138581;-68
2023/05/02 01:29:14;;;;;;;5.50;4.40;;;;;;;9.38;54.55;99657.45;218078;1256;125975;-67
2023/05/02 01:34:20;;;;;;;5.30;3.20;;;;;;;9.28;55.22;99656.86;218501;1256;138958;-68
2023/05/02 01:39:26;;;;;;;6.00;3.80;;;;;;;9.18;55.60;99653.25;217835;1260;138959;-68
2023/05/02 01:44:35;;;;;;;7.80;4.60;;;;;;;9.09;55.88;99649.10;218738;1257;139015;-68
2023/05/02 01:49:42;;;;;;;8.90;6.00;;;;;;;9.02;55.92;99646.61;217370;1258;139753;-67
2023/05/02 01:54:50;;;;;;;10.20;5.70;;;;;;;8.95;56.38;99636.02;218225;1257;138475;-69
2023/05/02 01:59:57;;;;;;;8.90;4.90;;;;;;;8.92;56.55;99634.23;217493;1257;139649;-69
2023/05/02 02:05:06;;;;;;;6.20;4.00;;;;;;;8.90;56.83;99630.30;217316;1259;138693;-69
2023/05/02 02:10:12;;;;;;;8.20;5.30;;;;;;;8.91;56.79;99627.83;217484;1260;139784;-69
2023/05/02 02:15:27;;;;;;;6.50;4.30;;;;;;;8.94;57.29;99629.02;217145;1258;138086;-67
2023/05/02 02:20:34;;;;;;;6.70;4.70;;;;;;;8.95;57.24;99624.83;217789;1256;138640;-67
2023/05/02 02:25:39;;;;;;;5.30;4.20;;;;;;;8.94;57.59;99624.06;217891;1257;138576;-68
2023/05/02 02:30:44;;;;;;;7.50;6.10;;;;;;;8.92;57.91;99625.19;220120;1257;139270;-67
2023/05/02 02:35:57;;;;;;;6.20;4.60;;;;;;;8.96;57.90;99621.33;220126;1259;139702;-68
2023/05/02 02:41:21;;;;;;;8.40;4.20;;;;;;;9.05;58.14;99623.05;220216;1257;139198;-68
2023/05/02 02:46:33;;;;;;;6.80;3.60;;;;;;;9.14;58.19;99622.69;220461;1256;140336;-68
2023/05/02 02:51:43;;;;;;;7.40;3.90;;;;;;;9.22;58.31;99624.45;220387;1257;139726;-67
2023/05/02 02:56:57;;;;;;;8.00;5.10;;;;;;;9.31;58.31;99623.67;220337;1257;138768;-68
2023/05/02 03:06:39;;;;;;;6.50;3.70;;;;;;;9.47;58.29;99621.25;215325;1297;637574;-68
2023/05/02 03:11:44;;;;;;;9.40;4.70;;;;;;;9.51;58.53;99621.48;216825;1266;138975;-67
2023/05/02 03:16:49;;;;;;;6.80;4.70;;;;;;;9.55;58.46;99619.99;218026;1267;189368;-68
2023/05/02 03:21:55;;;;;;;7.50;4.90;;;;;;;9.57;58.74;99618.08;217496;1263;138859;-67
2023/05/02 03:27:00;;;;;;;9.10;4.80;;;;;;;9.59;58.73;99619.77;217105;1263;159546;-67
2023/05/02 03:32:04;;;;;;;7.90;5.50;;;;;;;9.59;58.93;99620.30;217457;1263;138943;-67
2023/05/02 03:37:09;;;;;;;8.60;5.50;;;;;;;9.58;59.03;99619.79;217027;1264;140273;-67
2023/05/02 03:42:14;;;;;;;5.90;3.60;;;;;;;9.59;59.33;99621.41;217647;1266;139031;-67
2023/05/02 03:47:20;;;;;;;13.50;7.20;;;;;;;9.61;59.55;99624.28;216971;1263;138750;-66
2023/05/02 03:52:25;;;;;;;6.80;5.40;;;;;;;9.66;59.75;99626.11;216787;1264;138931;-67
2023/05/02 03:57:30;;;;;;;6.10;4.80;;;;;;;9.72;59.91;99627.00;216850;1266;139755;-66
2023/05/02 04:02:34;;;;;;;4.90;4.50;;;;;;;9.78;60.23;99630.53;217398;1266;138126;-67
2023/05/02 04:07:38;;;;;;;8.10;6.50;;;;;;;9.86;60.30;99630.31;217360;1269;139407;-67
2023/05/02 04:12:43;;;;;;;8.30;6.00;;;;;;;9.96;60.52;99633.81;218369;1267;138439;-67
2023/05/02 04:17:48;;;;;;;6.00;5.00;;;;;;;10.06;60.72;99632.97;217002;1267;138897;-68
2023/05/02 04:22:53;;;;;;;8.50;4.80;;;;;;;10.18;60.88;99635.77;217666;1266;139187;-68
2023/05/02 04:27:58;;;;;;;8.90;5.60;;;;;;;10.30;60.81;99646.67;218043;1264;140414;-67
2023/05/02 04:33:02;;;;;;;7.90;4.90;;;;;;;10.41;60.86;99650.99;217211;1269;139525;-67
2023/05/02 04:38:08;;;;;;;7.80;5.10;;;;;;;10.53;61.05;99651.88;219643;1265;139139;-67
2023/05/02 04:43:13;;;;;;;6.90;5.40;;;;;;;10.66;60.96;99649.30;219563;1267;139000;-67
2023/05/02 04:48:17;;;;;;;8.60;5.00;;;;;;;10.79;60.85;99656.28;219415;1269;139260;-67
2023/05/02 04:53:23;;;;;;;11.10;6.00;;;;;;;10.97;60.72;99658.70;219308;1268;139561;-68
2023/05/02 04:58:28;;;;;;;9.00;5.40;;;;;;;11.11;60.64;99656.98;217844;1268;139929;-68
2023/05/02 05:03:33;;;;;;;8.50;5.60;;;;;;;11.32;60.82;99658.71;216786;1269;140178;-66
2023/05/02 05:08:38;;;;;;;4.60;4.10;;;;;;;11.57;60.74;99662.76;217677;1264;140532;-66
2023/05/02 05:13:43;;;;;;;10.60;4.60;;;;;;;11.87;60.61;99661.41;216645;1268;138857;-67
2023/05/02 05:18:48;;;;;;;9.10;5.10;;;;;;;12.30;60.36;99664.70;217648;1267;140462;-66
2023/05/02 05:23:53;;;;;;;8.70;5.20;;;;;;;12.93;60.12;99665.83;216897;1269;140006;-66
2023/05/02 05:28:58;;;;;;;7.80;5.20;;;;;;;14.12;58.70;99660.67;216530;1264;139366;-67
2023/05/02 05:34:03;;;;;;;8.60;5.80;;;;;;;15.73;56.73;99662.16;217010;1269;140400;-67
2023/05/02 05:39:07;;;;;;;6.90;4.50;;;;;;;15.96;56.28;99668.22;216586;1264;138906;-67
2023/05/02 05:44:12;;;;;;;7.30;5.20;;;;;;;16.44;55.03;99673.96;218294;1258;138652;-70
2023/05/02 05:49:17;;;;;;;7.30;5.50;;;;;;;17.16;54.36;99674.00;218048;1260;140759;-71
2023/05/02 05:54:22;;;;;;;9.80;5.30;;;;;;;17.33;53.92;99678.70;218251;1258;138646;-68
2023/05/02 05:59:27;;;;;;;7.80;5.00;;;;;;;17.49;53.43;99678.13;217801;1257;138803;-68
2023/05/02 06:04:32;;;;;;;;;;;;;;;17.60;52.99;99681.73;218414;1258;138448;-68
2023/05/02 06:09:38;;;;;;;11.10;6.10;;;;;;;17.54;53.06;99689.20;219092;1257;125112;-70
2023/05/02 06:14:43;;;;;;;9.40;5.40;;;;;;;17.50;52.71;99696.71;218687;1260;140991;-68
2023/05/02 06:19:48;;;;;;;5.70;5.10;;;;;;;17.54;52.78;99701.48;217696;1258;138844;-67
2023/05/02 06:24:53;;;;;;;7.00;6.10;;;;;;;17.56;52.14;99702.19;220456;1257;139703;-69
2023/05/02 06:29:57;;;;;;;6.30;5.20;;;;;;;17.34;52.11;99710.98;217645;1257;141162;-69
2023/05/02 06:35:02;;;;;;;6.60;5.60;;;;;;;17.43;52.51;99722.65;220523;1257;140297;-68
2023/05/02 06:40:06;;;;;;;6.20;4.50;;;;;;;17.57;52.39;99726.60;220017;1257;139761;-68
2023/05/02 06:45:11;;;;;;;6.30;4.20;;;;;;;17.69;52.33;99732.84;220368;1257;138823;-70
2023/05/02 06:50:16;;;;;;;7.70;4.40;;;;;;;18.33;52.22;99733.51;219730;1257;139822;-71
2023/05/02 06:55:22;;;;;;;6.20;5.10;;;;;;;19.06;51.54;99737.76;218655;1260;139622;-69
2023/05/02 07:00:27;;;;;;;16.40;5.70;;;;;;;19.43;50.63;99746.91;217204;1257;140047;-67
2023/05/02 07:05:31;;;;;;;6.10;5.50;;;;;;;19.30;50.22;99751.58;217265;1259;139050;-71
2023/05/02 07:10:36;;;;;;;7.00;6.40;;;;;;;19.23;50.33;99760.23;218756;1258;139011;-74
2023/05/02 07:15:40;;;;;;;5.80;5.30;;;;;;;19.42;50.59;99768.16;217345;1257;139602;-67
2023/05/02 07:20:45;;;;;;;10.60;6.00;;;;;;;19.52;50.44;99771.70;218466;1257;139105;-67
2023/05/02 07:25:51;;;;;;;6.60;5.80;;;;;;;19.16;50.31;99778.95;218341;1258;139109;-67
2023/05/02 07:30:55;;;;;;;7.90;5.90;;;;;;;18.72;50.27;99789.41;217674;1256;138818;-67
2023/05/02 07:36:01;;;;;;;8.70;6.40;;;;;;;18.21;50.76;99799.45;218709;1257;139342;-67
2023/05/02 07:41:06;;;;;;;8.60;6.50;;;;;;;17.74;51.27;99815.23;217584;1257;139484;-67
2023/05/02 07:46:10;;;;;;;7.60;6.30;;;;;;;17.38;51.85;99814.36;217820;1257;139466;-67
2023/05/02 07:51:19;;;;;;;7.50;6.70;;;;;;;17.09;52.35;99817.02;217699;1257;140867;-67
2023/05/02 07:56:24;;;;;;;6.30;5.70;;;;;;;17.06;52.85;99823.83;217873;1260;139221;-66
2023/05/02 08:01:28;;;;;;;7.10;6.30;;;;;;;17.07;53.13;99829.80;218003;1260;138714;-70
2023/05/02 08:06:34;;;;;;;10.20;8.50;;;;;;;17.02;52.93;99831.86;217940;1260;139333;-69
2023/05/02 08:11:39;;;;;;;9.70;7.00;;;;;;;16.82;53.17;99839.71;219736;1256;139880;-70
2023/05/02 08:16:44;;;;;;;8.40;6.20;;;;;;;16.71;53.56;99851.16;219412;1257;138660;-70
2023/05/02 08:21:49;;;;;;;6.00;5.30;;;;;;;16.51;53.71;99860.67;219280;1256;139317;-67
2023/05/02 08:26:53;;;;;;;10.10;6.00;;;;;;;16.39;54.04;99868.27;220284;1256;138698;-68
2023/05/02 08:31:56;;;;;;;9.20;5.70;;;;;;;16.38;54.55;99868.65;220330;1256;139641;-67
2023/05/02 08:37:01;;;;;;;7.80;6.10;;;;;;;16.48;54.74;99880.44;219108;1256;138601;-66
2023/05/02 08:42:08;;;;;;;8.90;6.80;;;;;;;16.42;54.91;99885.45;219348;1256;139076;-69
2023/05/02 08:47:14;;;;;;;19.90;6.20;;;;;;;16.35;55.27;99892.91;217639;1260;139727;-70
2023/05/02 08:52:19;;;;;;;7.80;6.40;;;;;;;16.28;55.47;99900.27;217429;1256;139007;-70
2023/05/02 08:57:23;;;;;;;10.10;6.90;;;;;;;16.31;55.80;99908.35;217475;1257;138528;-69
2023/05/02 09:02:36;;;;;;;6.70;5.60;;;;;;;16.45;56.09;99916.93;218527;1257;157032;-72
2023/05/02 09:07:47;;;;;;;7.00;5.40;;;;;;;16.65;56.50;99921.45;217678;1257;138754;-73
2023/05/02 09:12:51;;;;;;;13.40;6.60;;;;;;;16.88;56.15;99930.70;217951;1256;138571;-72
2023/05/02 09:17:55;;;;;;;11.30;6.50;;;;;;;17.08;56.10;99932.02;218770;1257;141399;-72
2023/05/02 09:22:59;;;;;;;6.70;5.80;;;;;;;17.37;56.12;99925.81;217508;1260;139751;-72
2023/05/02 09:28:03;;;;;;;7.50;6.70;;;;;;;17.76;55.79;99933.16;217938;1256;138773;-73
2023/05/02 09:33:07;;;;;;;9.60;7.60;;;;;;;18.08;55.20;99933.52;217567;1256;139773;-70
2023/05/02 09:38:21;;;;;;;9.70;6.90;;;;;;;18.32;55.11;99938.61;217854;1260;138942;-71
2023/05/02 09:43:26;;;;;;;9.40;5.80;;;;;;;18.24;54.30;99946.05;218198;1256;139504;-72
2023/05/02 09:48:32;;;;;;;8.60;6.50;;;;;;;18.07;54.16;99946.16;217535;1256;138904;-72
2023/05/02 09:53:43;;;;;;;7.90;6.10;;;;;;;18.06;54.31;99952.26;217457;1257;140115;-68
2023/05/02 09:58:47;;;;;;;8.70;5.80;;;;;;;18.21;53.89;99961.84;217636;1257;140040;-70
2023/05/02 10:03:52;;;;;;;7.90;5.10;;;;;;;18.51;53.63;99967.79;218829;1256;138823;-68
2023/05/02 10:08:57;;;;;;;7.90;4.60;;;;;;;18.78;52.98;99965.81;217831;1257;138540;-69
2023/05/02 10:14:01;;;;;;;7.00;5.20;;;;;;;19.13;52.51;99971.77;218999;1257;140415;-69
2023/05/02 10:19:11;;;;;;;5.00;4.10;;;;;;;19.43;51.55;99975.08;217737;1260;138911;-67
2023/05/02 10:24:17;;;;;;;7.70;4.80;;;;;;;19.43;50.88;99975.23;220467;1256;139034;-71
2023/05/02 10:29:22;;;;;;;5.70;5.20;;;;;;;19.52;50.85;99978.03;218241;1256;139309;-69
2023/05/02 10:34:27;;;;;;;5.00;4.60;;;;;;;19.82;50.69;99981.69;219323;1256;141366;-67
2023/05/02 10:39:32;;;;;;;7.00;4.60;;;;;;;19.93;50.43;99989.76;220503;1256;139920;-67
2023/05/02 10:44:40;;;;;;;6.00;5.00;;;;;;;19.92;50.12;99992.20;219326;1256;139571;-68
2023/05/02 10:50:00;;;;;;;6.60;5.60;;;;;;;19.92;50.35;99993.02;218151;1256;139491;-67
2023/05/02 10:55:20;;;;;;;7.50;5.10;;;;;;;19.82;50.06;99996.98;218641;1257;141259;-66
2023/05/02 11:00:31;;;;;;;6.20;5.50;;;;;;;19.88;50.35;99991.61;217774;1257;139611;-66
2023/05/02 11:06:08;;;;;;;7.40;6.20;;;;;;;19.91;50.20;99997.63;218444;1257;140111;-68
2023/05/02 11:11:37;;;;;;;11.00;6.40;;;;;;;19.90;50.44;100002.35;218366;1256;139296;-69
2023/05/02 11:17:05;;;;;;;5.10;4.60;;;;;;;19.83;50.30;100006.98;217630;1257;139100;-67
2023/05/02 11:22:26;;;;;;;8.00;5.20;;;;;;;19.99;50.30;100014.14;218701;1256;140763;-69
2023/05/02 11:27:37;;;;;;;4.90;4.40;;;;;;;20.04;50.15;100021.94;218025;1257;139255;-69
2023/05/02 11:33:04;;;;;;;7.90;4.90;;;;;;;19.97;50.37;100026.66;217967;1256;139127;-70
2023/05/02 11:38:13;;;;;;;5.90;5.30;;;;;;;19.94;50.24;100040.08;217584;1260;138895;-68
2023/05/02 11:43:20;;;;;;;4.30;3.80;;;;;;;19.86;50.23;100043.63;218222;1257;138867;-66
2023/05/02 11:48:28;;;;;;;7.30;5.70;;;;;;;19.78;50.16;100051.09;217722;1260;139900;-67
2023/05/02 11:53:40;;;;;;;10.20;5.10;;;;;;;19.79;50.16;100054.05;218438;1256;138885;-71
2023/05/02 11:58:45;;;;;;;7.90;5.20;;;;;;;19.84;50.02;100055.13;218670;1257;139268;-68
2023/05/02 12:04:06;;;;;;;4.20;3.80;;;;;;;19.91;49.48;100053.69;218528;1256;139944;-67
2023/05/02 12:09:18;;;;;;;7.00;5.40;;;;;;;19.77;49.02;100065.70;217854;1257;139594;-69
2023/05/02 12:14:32;;;;;;;6.10;5.40;;;;;;;19.63;49.03;100065.95;218994;1256;139427;-67
2023/05/02 12:19:40;;;;;;;4.80;4.30;;;;;;;19.47;49.02;100066.59;219682;1259;141336;-70
2023/05/02 12:24:48;;;;;;;7.10;6.50;;;;;;;19.41;49.51;100062.91;218654;1257;139147;-69
2023/05/02 12:29:53;;;;;;;6.70;5.50;;;;;;;19.42;49.69;100067.49;220054;1256;139715;-70
2023/05/02 12:34:59;;;;;;;11.70;6.30;;;;;;;19.60;49.75;100062.08;220307;1256;139285;-69
2023/05/02 12:40:17;;;;;;;5.30;4.40;;;;;;;19.72;49.68;100063.81;219442;1257;139962;-68
2023/05/02 12:45:23;;;;;;;8.20;4.80;;;;;;;19.63;49.58;100069.52;219419;1256;139233;-68
2023/05/02 12:50:38;;;;;;;6.80;5.80;;;;;;;19.66;49.80;100078.36;219329;1256;139754;-69
2023/05/02 12:55:43;;;;;;;6.30;5.20;;;;;;;19.45;49.42;100080.77;218792;1259;140764;-68
2023/05/02 13:00:49;;;;;;;6.40;4.80;;;;;;;19.22;49.60;100079.90;219246;1256;140153;-69
2023/05/02 13:05:57;;;;;;;6.70;5.70;;;;;;;19.24;50.04;100077.40;218532;1260;139459;-68
2023/05/02 13:11:02;;;;;;;6.50;5.40;;;;;;;19.31;50.41;100082.61;217824;1257;139253;-69
2023/05/02 13:16:07;;;;;;;11.70;6.20;;;;;;;19.43;50.32;100082.58;218477;1256;139514;-71
2023/05/02 13:21:11;;;;;;;11.20;5.50;;;;;;;19.49;50.44;100086.21;217551;1256;139435;-70
2023/05/02 13:26:15;;;;;;;5.80;5.20;;;;;;;19.65;50.24;100085.02;217999;1260;139172;-72
2023/05/02 13:31:19;;;;;;;6.00;5.40;;;;;;;19.57;49.58;100084.04;218416;1260;141093;-72
2023/05/02 13:36:23;;;;;;;6.10;5.50;;;;;;;19.62;49.90;100079.92;217935;1256;141414;-71
2023/05/02 13:41:27;;;;;;;5.60;4.60;;;;;;;19.80;49.49;100072.86;218350;1256;139182;-72
2023/05/02 13:46:35;;;;;;;7.60;3.70;;;;;;;19.99;49.33;100071.89;218245;1260;139017;-72
2023/05/02 13:51:40;;;;;;;6.90;4.10;;;;;;;20.01;48.44;100065.31;217951;1256;139616;-71
2023/05/02 13:56:44;;;;;;;4.50;4.10;;;;;;;19.92;48.13;100062.87;218497;1256;140735;-75
2023/05/02 14:01:48;;;;;;;3.20;2.90;;;;;;;19.87;48.09;100064.09;218256;1256;139600;-73
2023/05/02 14:06:53;;;;;;;4.20;3.80;;;;;;;19.85;47.75;100064.71;219454;1256;139714;-74
2023/05/02 14:11:57;;;;;;;6.70;4.50;;;;;;;19.92;47.94;100071.97;219003;1256;138759;-74
2023/05/02 14:17:02;;;;;;;7.60;4.40;;;;;;;20.03;47.73;100069.30;219595;1256;139936;-70
2023/05/02 14:22:06;;;;;;;5.70;4.30;;;;;;;20.07;47.55;100058.33;219401;1255;139627;-71
2023/05/02 14:27:13;;;;;;;6.40;4.60;;;;;;;20.04;47.31;100059.23;219499;1255;139496;-72
2023/05/02 14:32:18;;;;;;;6.10;4.00;;;;;;;20.05;47.17;100067.11;218249;1255;139947;-70
2023/05/02 14:37:22;;;;;;;6.70;4.20;;;;;;;20.10;46.63;100069.00;217930;1255;138931;-71
2023/05/02 14:42:25;;;;;;;3.90;3.60;;;;;;;20.08;45.89;100066.60;217907;1256;139046;-69
2023/05/02 14:47:31;;;;;;;9.00;3.90;;;;;;;19.99;45.33;100063.55;218203;1256;139262;-69
2023/05/02 14:52:35;;;;;;;3.50;3.20;;;;;;;19.92;45.27;100062.87;218556;1256;140500;-69
2023/05/02 14:57:39;;;;;;;4.10;3.50;;;;;;;19.95;45.27;100061.55;218122;1259;139823;-70
2023/05/02 15:02:43;;;;;;;5.50;3.60;;;;;;;19.96;44.79;100062.23;218626;1258;139584;-69
2023/05/02 15:07:47;;;;;;;3.80;3.40;;;;;;;19.90;44.90;100067.21;217971;1255;140304;-68
2023/05/02 15:12:51;;;;;;;4.50;3.70;;;;;;;19.93;45.14;100068.59;218930;1256;140512;-69
2023/05/02 15:17:56;;;;;;;4.80;3.80;;;;;;;19.99;44.77;100072.86;217460;1256;883894;-69
2023/05/02 15:23:02;;;;;;;8.00;3.50;;;;;;;19.98;44.35;100077.75;218572;1257;139479;-70
2023/05/02 15:28:07;;;;;;;5.10;3.30;;;;;;;19.92;44.25;100077.86;219043;1256;139039;-70
2023/05/02 15:33:11;;;;;;;3.40;3.00;;;;;;;19.85;44.13;100080.38;218879;1259;138860;-69
2023/05/02 15:38:17;;;;;;;6.80;3.20;;;;;;;19.70;43.91;100081.84;217977;1255;139091;-70
2023/05/02 15:43:23;;;;;;;5.10;3.90;;;;;;;19.48;43.97;100082.38;219135;1256;140765;-69
2023/05/02 15:48:28;;;;;;;5.20;3.60;;;;;;;19.36;44.56;100083.88;218023;1257;139432;-69
2023/05/02 15:53:33;;;;;;;4.30;3.90;;;;;;;19.18;44.51;100090.89;218933;1256;140990;-70
2023/05/02 15:58:39;;;;;;;6.30;4.50;;;;;;;18.89;45.10;100100.73;219458;1256;140372;-69
2023/05/02 16:03:42;;;;;;;15.90;5.40;;;;;;;18.57;46.17;100110.84;220042;1256;139706;-70
2023/05/02 16:08:50;;;;;;;4.70;4.30;;;;;;;18.26;46.93;100122.09;218541;1256;139346;-74
2023/05/02 16:13:54;;;;;;;7.50;5.20;;;;;;;17.96;47.43;100125.27;219198;1256;138999;-72
2023/05/02 16:18:58;;;;;;;6.30;4.50;;;;;;;17.60;48.10;100123.36;220432;1256;139665;-71
2023/05/02 16:24:02;;;;;;;5.20;4.30;;;;;;;17.28;49.23;100132.32;218343;1259;138563;-73
2023/05/02 16:29:06;;;;;;;4.70;4.30;;;;;;;17.09;49.71;100138.66;217755;1259;139545;-72
2023/05/02 16:34:10;;;;;;;4.10;3.90;;;;;;;16.92;50.05;100135.52;217721;1260;138936;-71
2023/05/02 16:39:14;;;;;;;6.70;4.70;;;;;;;16.84;50.74;100133.02;218558;1256;140029;-72
2023/05/02 16:44:18;;;;;;;4.20;3.80;;;;;;;16.76;51.02;100135.22;218351;1256;139382;-70
2023/05/02 16:49:22;;;;;;;6.50;5.10;;;;;;;16.66;51.86;100133.66;218023;1259;139278;-68
2023/05/02 16:54:26;;;;;;;4.80;4.30;;;;;;;16.57;52.58;100136.84;217766;1257;138972;-70
2023/05/02 16:59:31;;;;;;;4.90;4.40;;;;;;;16.47;52.98;100138.98;217986;1256;139342;-71
2023/05/02 17:04:35;;;;;;;10.60;6.80;;;;;;;16.38;53.51;100143.30;219233;1256;139161;-72
2023/05/02 17:09:40;;;;;;;9.60;6.50;;;;;;;16.32;54.21;100148.91;217843;1257;139697;-72
2023/05/02 17:14:44;;;;;;;10.50;5.40;;;;;;;16.23;54.67;100149.08;217626;1256;139311;-73
2023/05/02 17:19:50;;;;;;;6.80;6.20;;;;;;;16.14;55.36;100156.52;217915;1256;139739;-70
2023/05/02 17:24:55;;;;;;;6.80;6.10;;;;;;;16.04;55.94;100158.06;218955;1257;140219;-71
2023/05/02 17:29:58;;;;;;;6.80;5.50;;;;;;;15.95;56.93;100165.92;218217;1257;138948;-72
2023/05/02 17:35:04;;;;;;;8.70;7.80;;;;;;;15.76;56.88;100180.96;218503;1256;141786;-71
2023/05/02 17:40:09;;;;;;;7.90;7.10;;;;;;;15.58;56.89;100189.24;218765;1256;139514;-70
2023/05/02 17:45:17;;;;;;;7.20;5.70;;;;;;;15.48;57.25;100191.52;219753;1255;139614;-70
2023/05/02 17:50:24;;;;;;;;;;;;;;;15.38;57.44;100202.76;218797;1258;139746;-72
2023/05/02 17:55:31;;;;;;;6.80;5.50;;;;;;;15.26;57.76;100213.66;218569;1255;207718;-71
2023/05/02 18:00:37;;;;;;;;;;;;;;;15.14;57.79;100218.96;218296;1259;138879;-69
2023/05/02 18:05:46;;;;;;;;;;;;;;;15.02;58.03;100226.13;219725;1257;126445;-70
2023/05/02 18:10:54;;;;;;;8.10;6.10;;;;;;;14.90;58.13;100239.80;219725;1256;125840;-71
2023/05/02 18:16:00;;;;;;;;;;;;;;;14.82;58.53;100247.59;218673;1255;140553;-71
2023/05/02 18:21:10;;;;;;;11.00;5.80;;;;;;;14.72;58.68;100254.49;218950;1259;125854;-70
2023/05/02 18:26:15;;;;;;;10.00;7.20;;;;;;;14.68;58.90;100261.75;219075;1256;139195;-71
2023/05/02 18:31:19;;;;;;;10.00;6.40;;;;;;;14.64;59.08;100269.70;219044;1257;141081;-73
2023/05/02 18:36:28;;;;;;;10.80;7.00;;;;;;;14.60;59.16;100275.01;218955;1257;139916;-74
2023/05/02 18:41:34;;;;;;;10.40;6.20;;;;;;;14.52;59.06;100284.39;218052;1256;139904;-69
2023/05/02 18:46:41;;;;;;;9.40;7.00;;;;;;;14.46;59.21;100290.09;218817;1259;140078;-70
2023/05/02 18:51:46;;;;;;;8.40;7.40;;;;;;;14.40;59.35;100301.58;218984;1257;139501;-71
2023/05/02 18:56:53;;;;;;;8.30;7.20;;;;;;;14.33;59.44;100313.02;218516;1257;139185;-70
2023/05/02 19:01:59;;;;;;;13.20;7.20;;;;;;;14.25;59.64;100318.88;217984;1258;141266;-71
2023/05/02 19:07:04;;;;;;;12.20;6.90;;;;;;;14.17;59.82;100329.74;217979;1256;140824;-70
2023/05/02 19:12:09;;;;;;;6.60;5.20;;;;;;;14.11;59.88;100339.24;218004;1256;139674;-74
2023/05/02 19:17:15;;;;;;;8.80;6.10;;;;;;;14.07;59.98;100344.11;218204;1259;139692;-73
2023/05/02 19:22:23;;;;;;;7.70;5.60;;;;;;;14.01;60.00;100349.11;217906;1259;138903;-72
2023/05/02 19:27:30;;;;;;;8.10;5.90;;;;;;;13.95;60.28;100348.64;218008;1256;139698;-72
2023/05/02 19:32:36;;;;;;;9.40;5.00;;;;;;;13.86;60.34;100355.55;217778;1257;139750;-72
2023/05/02 19:37:42;;;;;;;7.20;5.40;;;;;;;13.77;60.43;100358.77;218171;1257;139779;-68
2023/05/02 19:42:47;;;;;;;5.20;4.60;;;;;;;13.69;60.51;100370.32;217892;1259;138537;-73
2023/05/02 19:47:55;;;;;;;6.40;4.60;;;;;;;13.64;60.79;100372.41;218642;1260;139020;-73
2023/05/02 19:53:03;;;;;;;5.60;5.00;;;;;;;13.60;60.73;100376.92;218258;1258;138782;-72
2023/05/02 19:58:08;;;;;;;6.10;5.10;;;;;;;13.54;60.86;100383.34;219154;1257;139611;-71
2023/05/02 20:03:15;;;;;;;9.00;4.90;;;;;;;13.48;60.91;100386.66;218717;1257;138811;-71
2023/05/02 20:08:22;;;;;;;4.10;3.60;;;;;;;13.45;60.85;100393.95;218178;1257;139145;-67
2023/05/02 20:13:26;;;;;;;3.70;3.40;;;;;;;13.41;61.05;100402.45;220393;1256;139451;-71
2023/05/02 20:18:31;;;;;;;4.00;3.10;;;;;;;13.39;61.09;100404.10;219193;1257;139865;-70
2023/05/02 20:23:35;;;;;;;7.40;4.10;;;;;;;13.34;61.20;100405.30;218165;1259;139162;-72
2023/05/02 20:28:40;;;;;;;4.10;3.00;;;;;;;13.30;61.46;100411.02;219132;1256;139339;-69
2023/05/02 20:33:44;;;;;;;8.80;3.50;;;;;;;13.27;61.39;100417.39;218800;1257;139770;-68
2023/05/02 20:38:49;;;;;;;8.30;3.60;;;;;;;13.22;61.45;100420.94;218505;1257;141168;-69
2023/05/02 20:43:54;;;;;;;4.60;3.90;;;;;;;13.18;61.82;100430.52;219354;1256;140148;-68
2023/05/02 20:48:59;;;;;;;5.10;3.60;;;;;;;13.15;61.89;100429.98;218054;1257;139746;-67
2023/05/02 20:54:03;;;;;;;5.10;3.70;;;;;;;13.11;61.88;100428.33;218233;1257;140188;-70
2023/05/02 20:59:07;;;;;;;3.90;3.40;;;;;;;13.06;62.10;100429.93;218158;1257;140225;-69
2023/05/02 21:04:12;;;;;;;5.50;3.90;;;;;;;13.01;62.07;100438.59;218020;1259;141168;-68
2023/05/02 21:09:18;;;;;;;4.30;3.30;;;;;;;12.97;62.33;100442.13;218327;1256;139960;-68
2023/05/02 21:14:24;;;;;;;5.10;3.70;;;;;;;12.93;62.35;100450.99;217641;1257;139530;-68
2023/05/02 21:19:32;;;;;;;5.80;3.70;;;;;;;12.89;62.18;100458.43;218378;1259;139938;-71
2023/05/02 21:24:36;;;;;;;;;;;;;;;12.86;62.36;100460.91;218640;1256;140518;-70
2023/05/02 21:29:40;;;;;;;4.20;3.80;;;;;;;12.79;62.61;100461.22;219617;1259;127705;-68
2023/05/02 21:34:45;;;;;;;9.50;3.70;;;;;;;12.76;62.60;100458.88;218321;1256;140301;-68
2023/05/02 21:40:03;;;;;;;5.20;3.30;;;;;;;12.68;62.37;100464.19;218818;1256;139864;-68
2023/05/02 21:45:11;;;;;;;3.50;3.20;;;;;;;12.62;62.44;100469.59;218860;1259;140534;-70
2023/05/02 21:50:16;;;;;;;5.90;3.40;;;;;;;12.58;62.52;100473.77;219011;1259;140295;-70
2023/05/02 21:55:22;;;;;;;5.30;3.10;;;;;;;12.56;62.38;100469.77;218789;1259;139981;-69
2023/05/02 22:00:27;;;;;;;4.30;3.30;;;;;;;12.52;62.07;100477.70;218363;1257;140770;-68
2023/05/02 22:05:31;;;;;;;7.10;3.40;;;;;;;12.48;62.23;100480.02;218480;1260;140363;-71
2023/05/02 22:10:40;;;;;;;3.10;2.70;;;;;;;12.45;62.21;100482.95;219270;1259;140523;-70
2023/05/02 22:15:46;;;;;;;5.90;3.30;;;;;;;12.42;62.09;100483.67;219849;1256;140174;-69
2023/05/02 22:20:51;;;;;;;3.60;3.10;;;;;;;12.39;62.02;100487.92;220586;1257;140770;-72
2023/05/02 22:25:56;;;;;;;7.30;3.00;;;;;;;12.37;61.69;100492.72;219852;1256;140594;-69
2023/05/02 22:31:00;;;;;;;5.40;2.60;;;;;;;12.31;61.65;100498.07;219931;1256;139417;-70
2023/05/02 22:36:03;;;;;;;2.60;1.90;;;;;;;12.26;61.28;100499.38;219586;1257;140347;-69
2023/05/02 22:41:08;;;;;;;3.90;2.80;;;;;;;12.21;61.51;100498.02;219202;1257;139627;-67
2023/05/02 22:46:11;;;;;;;5.00;3.10;;;;;;;12.14;61.40;100499.88;218120;1256;141307;-68
2023/05/02 22:51:17;;;;;;;2.40;2.20;;;;;;;12.08;61.15;100505.66;218090;1259;140138;-68
2023/05/02 22:56:23;;;;;;;4.90;3.50;;;;;;;12.01;61.29;100505.23;219425;1259;161739;-69
2023/05/02 23:01:28;;;;;;;6.20;3.00;;;;;;;11.95;61.31;100517.08;217815;1260;139142;-67
2023/05/02 23:06:36;;;;;;;5.50;3.10;;;;;;;11.91;61.13;100521.15;218534;1256;139161;-67
2023/05/02 23:11:43;;;;;;;2.80;2.00;;;;;;;11.88;61.15;100525.66;218795;1259;140661;-67
2023/05/02 23:16:52;;;;;;;3.00;2.70;;;;;;;11.85;61.18;100529.10;218798;1258;139077;-68
2023/05/02 23:21:58;;;;;;;4.50;2.50;;;;;;;11.79;60.96;100539.19;217741;1258;139623;-65
2023/05/02 23:27:05;;;;;;;4.70;3.00;;;;;;;11.73;61.35;100539.35;218157;1260;138948;-67